Time;durP1;ratioP1;P1;durP2;ratioP2;P2;SDS_P1;SDS_P2;PMS_P1;PMS_P2;Temp;Humidity;BMP_temperature;BMP_pressure;BME280_temperature;BME280_humidity;BME280_pressure;Samples;Min_cycle;Max_cycle;Signal;HPM_P1;HPM_P2
2024/03/24 00:03:58;;;;;;;5.35;2.85;;;;;;;6.84;75.82;99386.34;10418463;28;20104;-64
2024/03/24 00:08:58;;;;;;;3.17;2.80;;;;;;;6.71;76.64;99360.00;10416443;28;20087;-65
2024/03/24 00:13:59;;;;;;;4.97;3.17;;;;;;;6.79;77.20;99370.03;10421165;28;20052;-63
2024/03/24 00:19:03;;;;;;;4.18;3.33;;;;;;;6.83;77.52;99358.22;10392063;28;20479;-63
2024/03/24 00:24:03;;;;;;;3.15;2.50;;;;;;;6.82;77.26;99352.09;10417585;28;20084;-65
2024/03/24 00:29:04;;;;;;;3.00;2.10;;;;;;;6.73;78.27;99358.94;10419041;28;20048;-64
2024/03/24 00:34:05;;;;;;;5.00;2.47;;;;;;;6.84;78.57;99338.75;10417858;28;20049;-65
2024/03/24 00:39:07;;;;;;;4.00;2.40;;;;;;;6.99;78.22;99348.09;10414325;28;20542;-64
2024/03/24 00:44:07;;;;;;;5.43;2.55;;;;;;;6.98;78.91;99341.13;10405237;28;20181;-65
2024/03/24 00:49:08;;;;;;;3.72;2.60;;;;;;;7.02;78.19;99337.25;10414161;28;20854;-65
2024/03/24 00:54:08;;;;;;;3.58;2.25;;;;;;;7.01;77.60;99335.59;10406914;28;20056;-64
2024/03/24 00:59:08;;;;;;;3.40;2.60;;;;;;;7.10;77.43;99331.38;10404318;28;20070;-65
2024/03/24 01:04:09;;;;;;;4.38;2.47;;;;;;;7.06;77.76;99332.56;10410682;28;20102;-64
2024/03/24 01:09:10;;;;;;;4.63;2.85;;;;;;;7.06;77.72;99327.28;10398657;28;20777;-65
2024/03/24 01:14:11;;;;;;;3.75;3.20;;;;;;;7.05;77.57;99322.94;10411034;28;20067;-65
2024/03/24 01:19:12;;;;;;;3.55;2.97;;;;;;;7.07;78.32;99313.94;10405614;28;20072;-64
2024/03/24 01:24:12;;;;;;;5.75;3.22;;;;;;;7.08;77.75;99298.88;10403608;28;20703;-64
2024/03/24 01:29:13;;;;;;;3.05;2.75;;;;;;;6.92;78.83;99282.56;10382769;28;20056;-64
2024/03/24 01:34:14;;;;;;;6.32;2.72;;;;;;;6.72;78.02;99287.66;10410704;28;20061;-64
2024/03/24 01:39:14;;;;;;;2.85;1.90;;;;;;;6.75;76.26;99276.81;10414074;28;20198;-65
2024/03/24 01:44:15;;;;;;;2.80;1.83;;;;;;;6.71;77.75;99260.38;10394509;28;20480;-64
2024/03/24 01:49:15;;;;;;;1.75;1.50;;;;;;;6.75;76.40;99265.41;10394865;28;20049;-65
2024/03/24 01:54:16;;;;;;;2.35;1.75;;;;;;;6.68;76.69;99254.47;10413981;28;20048;-64
2024/03/24 01:59:17;;;;;;;2.00;1.80;;;;;;;6.69;77.25;99230.53;10413457;28;20216;-63
2024/03/24 02:04:17;;;;;;;4.30;2.70;;;;;;;6.81;77.54;99238.47;10420471;28;20076;-64
2024/03/24 02:09:18;;;;;;;3.28;2.55;;;;;;;6.80;77.69;99231.50;10410517;28;20555;-68
2024/03/24 02:14:19;;;;;;;3.90;2.20;;;;;;;6.83;78.38;99228.59;10413067;28;20056;-63
2024/03/24 02:19:19;;;;;;;2.80;2.28;;;;;;;6.73;77.98;99220.56;10413825;28;20054;-65
2024/03/24 02:24:20;;;;;;;3.65;2.80;;;;;;;6.69;79.20;99230.53;10421846;28;20466;-66
2024/03/24 02:29:20;;;;;;;2.22;1.98;;;;;;;6.73;79.13;99226.69;10414957;28;20045;-65
2024/03/24 02:34:22;;;;;;;2.75;2.00;;;;;;;6.52;79.41;99223.16;10412699;28;20766;-64
2024/03/24 02:39:23;;;;;;;2.67;2.00;;;;;;;6.49;79.50;99233.97;10417286;28;20104;-63
2024/03/24 02:44:27;;;;;;;2.75;1.40;;;;;;;6.48;80.09;99227.00;10390254;28;20119;-64
2024/03/24 02:49:27;;;;;;;1.83;1.10;;;;;;;6.34;79.59;99215.72;10408834;28;20132;-65
2024/03/24 02:54:28;;;;;;;1.55;1.33;;;;;;;6.35;78.95;99217.41;10407393;28;20048;-64
2024/03/24 02:59:28;;;;;;;4.30;1.20;;;;;;;6.41;78.75;99204.66;10409468;28;20078;-65
2024/03/24 03:04:29;;;;;;;2.30;1.20;;;;;;;6.43;78.01;99179.78;10409969;28;20739;-66
2024/03/24 03:09:31;;;;;;;1.83;1.13;;;;;;;6.43;77.99;99187.72;10409384;28;20056;-65
2024/03/24 03:14:32;;;;;;;0.82;0.50;;;;;;;6.34;77.63;99176.06;10390003;28;20157;-67
2024/03/24 03:19:33;;;;;;;1.42;0.50;;;;;;;6.27;77.14;99176.69;10417858;28;20270;-66
2024/03/24 03:24:33;;;;;;;0.70;0.40;;;;;;;6.34;77.36;99185.81;10385333;28;20110;-64
2024/03/24 03:29:34;;;;;;;1.85;0.52;;;;;;;6.38;76.87;99179.31;10410312;28;20047;-65
2024/03/24 03:34:35;;;;;;;0.60;0.40;;;;;;;6.29;77.24;99167.69;10391554;28;20554;-65
2024/03/24 03:39:35;;;;;;;1.20;0.38;;;;;;;6.18;76.44;99172.97;10407773;28;20164;-65
2024/03/24 03:44:36;;;;;;;1.45;0.43;;;;;;;6.25;76.69;99171.50;10411718;28;20053;-65
2024/03/24 03:49:36;;;;;;;0.95;0.57;;;;;;;6.04;76.63;99117.75;10415312;28;20052;-65
2024/03/24 03:54:37;;;;;;;1.15;0.25;;;;;;;6.25;75.71;99174.16;10415171;28;20060;-65
2024/03/24 03:59:37;;;;;;;1.65;0.40;;;;;;;6.23;76.25;99181.38;10411426;28;20748;-66
2024/03/24 04:04:38;;;;;;;2.50;0.35;;;;;;;6.39;75.57;99169.56;10416362;28;20049;-66
2024/03/24 04:09:39;;;;;;;0.50;0.20;;;;;;;6.34;75.85;99160.19;10406110;28;20654;-66
2024/03/24 04:14:39;;;;;;;0.65;0.20;;;;;;;6.42;75.03;99159.59;10406572;28;20051;-64
2024/03/24 04:19:39;;;;;;;0.70;0.20;;;;;;;6.29;75.47;99149.16;10411446;28;20045;-64
2024/03/24 04:24:40;;;;;;;0.50;0.20;;;;;;;6.21;75.42;99162.16;10402666;28;20049;-65
2024/03/24 04:29:42;;;;;;;2.22;0.50;;;;;;;6.18;75.89;99172.97;10407594;28;20087;-65
2024/03/24 04:34:45;;;;;;;0.82;0.30;;;;;;;6.18;75.73;99173.81;10409362;28;20139;-65
2024/03/24 04:39:46;;;;;;;1.98;0.40;;;;;;;6.31;75.53;99168.38;10400558;28;21236;-65
2024/03/24 04:44:46;;;;;;;0.88;0.30;;;;;;;6.19;74.65;99148.22;10395300;28;20057;-65
2024/03/24 04:49:46;;;;;;;1.10;0.50;;;;;;;6.19;75.97;99154.34;10395434;28;20079;-64
2024/03/24 04:54:47;;;;;;;3.08;0.70;;;;;;;6.10;76.55;99154.25;10390652;28;20056;-66
2024/03/24 04:59:47;;;;;;;1.52;0.35;;;;;;;6.07;76.67;99155.31;10394771;28;20141;-66
2024/03/24 05:04:49;;;;;;;0.90;0.60;;;;;;;6.04;76.73;99150.28;10394198;28;20605;-63
2024/03/24 05:09:52;;;;;;;1.48;0.38;;;;;;;6.00;76.19;99149.69;10419724;28;20120;-64
2024/03/24 05:14:52;;;;;;;1.92;0.85;;;;;;;5.99;75.71;99150.66;10414826;28;20128;-65
2024/03/24 05:19:53;;;;;;;2.80;0.68;;;;;;;6.02;75.51;99141.66;10395723;28;20418;-65
2024/03/24 05:24:53;;;;;;;1.38;0.35;;;;;;;5.93;75.22;99148.47;10413707;28;20517;-65
2024/03/24 05:29:54;;;;;;;1.13;0.40;;;;;;;5.90;75.14;99142.56;10377645;28;20081;-65
2024/03/24 05:34:56;;;;;;;1.17;0.28;;;;;;;5.96;75.04;99137.66;10388459;28;20065;-65
2024/03/24 05:39:56;;;;;;;1.33;0.50;;;;;;;5.96;75.04;99136.78;10395252;28;20068;-65
2024/03/24 05:44:58;;;;;;;2.40;0.93;;;;;;;5.93;75.01;99127.34;10438182;28;20143;-65
2024/03/24 05:50:01;;;;;;;1.85;0.75;;;;;;;5.76;75.53;99135.75;10423764;28;20545;-66
2024/03/24 05:55:04;;;;;;;2.13;0.70;;;;;;;5.76;76.11;99141.03;10404843;28;20069;-65
2024/03/24 06:00:06;;;;;;;1.58;1.00;;;;;;;5.85;76.05;99135.00;10415397;28;20669;-65
2024/03/24 06:05:07;;;;;;;1.20;0.77;;;;;;;5.88;75.83;99134.75;10412793;28;20068;-66
2024/03/24 06:10:08;;;;;;;1.35;0.80;;;;;;;5.77;74.99;99132.16;10414656;28;20072;-65
2024/03/24 06:15:10;;;;;;;2.30;1.00;;;;;;;5.80;74.60;99132.72;10412835;28;20074;-66
2024/03/24 06:20:11;;;;;;;1.20;0.68;;;;;;;5.82;73.48;99129.97;10407390;28;20072;-65
2024/03/24 06:25:11;;;;;;;1.33;0.63;;;;;;;5.82;73.41;99129.97;10418142;28;20057;-66
2024/03/24 06:30:12;;;;;;;0.90;0.57;;;;;;;5.77;72.75;99122.41;10419410;28;20152;-64
2024/03/24 06:35:13;;;;;;;0.98;0.50;;;;;;;5.82;71.98;99127.31;10400664;28;20747;-65
2024/03/24 06:40:14;;;;;;;0.77;0.47;;;;;;;5.89;71.92;99127.69;10395988;28;20140;-65
2024/03/24 06:45:15;;;;;;;1.30;0.70;;;;;;;5.89;71.75;99144.38;10407120;28;20071;-65
2024/03/24 06:50:16;;;;;;;1.08;0.57;;;;;;;5.99;71.42;99141.88;10431278;28;20656;-66
2024/03/24 06:55:16;;;;;;;0.93;0.70;;;;;;;5.85;70.89;99119.16;10418309;28;20076;-65
2024/03/24 07:00:17;;;;;;;1.08;0.85;;;;;;;5.99;71.39;99140.09;10416473;28;20055;-67
2024/03/24 07:05:18;;;;;;;1.83;0.82;;;;;;;6.11;70.69;99126.84;10416454;28;20079;-66
2024/03/24 07:10:18;;;;;;;1.05;0.80;;;;;;;5.97;71.23;99130.59;10400962;28;21389;-65
2024/03/24 07:15:19;;;;;;;2.22;0.88;;;;;;;6.05;71.41;99115.00;10368901;28;20050;-67
2024/03/24 07:20:19;;;;;;;2.10;1.20;;;;;;;6.16;71.82;99122.06;10437017;28;20568;-65
2024/03/24 07:25:21;;;;;;;2.38;1.00;;;;;;;6.24;70.98;99124.91;10416145;28;20782;-66
2024/03/24 07:30:21;;;;;;;1.95;0.80;;;;;;;6.28;70.52;99123.69;10419848;28;20102;-66
2024/03/24 07:35:24;;;;;;;3.00;1.42;;;;;;;6.33;70.71;99133.91;10410898;28;20649;-66
2024/03/24 07:40:26;;;;;;;2.63;1.13;;;;;;;6.19;71.13;99121.81;10409809;28;20703;-65
2024/03/24 07:45:26;;;;;;;1.90;1.10;;;;;;;6.32;71.45;99125.13;10390555;28;20052;-64
2024/03/24 07:50:27;;;;;;;2.60;1.42;;;;;;;6.43;70.57;99123.44;10409193;28;20049;-65
2024/03/24 07:55:27;;;;;;;4.35;1.73;;;;;;;6.31;71.32;99119.97;10404229;28;20736;-66
2024/03/24 08:00:29;;;;;;;2.47;1.65;;;;;;;6.37;71.77;99115.03;10405123;28;20664;-64
2024/03/24 08:05:30;;;;;;;3.28;1.85;;;;;;;6.53;71.55;99121.69;10409182;28;20080;-64
2024/03/24 08:10:30;;;;;;;4.15;1.85;;;;;;;6.61;72.61;99116.63;10412537;28;20072;-64
2024/03/24 08:15:30;;;;;;;2.35;1.63;;;;;;;6.67;72.89;99128.53;10400417;28;20132;-65
2024/03/24 08:20:31;;;;;;;2.50;1.88;;;;;;;6.79;72.99;99126.66;10349894;28;20054;-65
2024/03/24 08:25:32;;;;;;;2.53;1.70;;;;;;;6.85;74.20;99134.09;10412851;28;20115;-66
2024/03/24 08:30:33;;;;;;;2.45;1.95;;;;;;;6.81;75.74;99141.44;10418108;28;20108;-65
2024/03/24 08:35:35;;;;;;;4.63;2.38;;;;;;;6.85;74.38;99136.75;10410417;28;20202;-64
2024/03/24 08:40:36;;;;;;;3.92;2.45;;;;;;;6.77;74.76;99141.81;10427038;28;20145;-65
2024/03/24 08:45:36;;;;;;;4.15;2.42;;;;;;;6.82;74.80;99129.06;10417048;28;20049;-66
2024/03/24 08:50:37;;;;;;;4.28;2.60;;;;;;;6.87;74.32;99140.91;10396421;28;20049;-66
2024/03/24 08:55:37;;;;;;;3.72;2.72;;;;;;;6.94;75.61;99132.50;10422262;28;20064;-66
2024/03/24 09:00:40;;;;;;;5.93;2.88;;;;;;;6.93;76.55;99130.81;10421110;28;20059;-66
2024/03/24 09:05:40;;;;;;;3.83;2.25;;;;;;;6.97;78.00;99127.78;10411166;28;20068;-64
2024/03/24 09:10:41;;;;;;;4.72;3.20;;;;;;;7.20;76.12;99120.53;10408664;28;20051;-66
2024/03/24 09:15:41;;;;;;;4.95;2.70;;;;;;;7.56;76.35;99118.38;10414133;28;20041;-63
2024/03/24 09:20:42;;;;;;;4.97;2.97;;;;;;;7.92;74.63;99110.03;10414005;28;20053;-63
2024/03/24 09:25:46;;;;;;;2.92;2.35;;;;;;;8.06;73.63;99108.78;10395323;28;20056;-61
2024/03/24 09:30:58;;;;;;;3.72;2.53;;;;;;;7.94;75.31;99116.00;10395847;28;20285;-61
2024/03/24 09:35:59;;;;;;;5.60;3.55;;;;;;;7.81;76.09;99107.44;10409713;28;20222;-59
2024/03/24 09:41:00;;;;;;;7.60;2.15;;;;;;;7.84;76.97;99109.88;10416419;28;20274;-61
2024/03/24 09:46:02;;;;;;;3.40;2.67;;;;;;;7.92;76.85;99110.03;10403373;28;20397;-61
2024/03/24 09:51:04;;;;;;;3.40;2.13;;;;;;;7.71;76.65;99067.69;10415267;28;20077;-62
2024/03/24 09:56:07;;;;;;;3.50;2.38;;;;;;;7.95;76.69;99101.78;10414481;28;20147;-61
2024/03/24 10:01:08;;;;;;;2.80;2.15;;;;;;;7.96;76.53;99108.78;10393246;28;20127;-61
2024/03/24 10:06:11;;;;;;;4.28;2.40;;;;;;;8.01;77.75;99106.56;10412026;28;20048;-62
2024/03/24 10:11:28;;;;;;;2.80;2.08;;;;;;;7.91;78.06;99101.25;10406856;28;20134;-62
2024/03/24 10:16:29;;;;;;;4.65;1.95;;;;;;;7.90;76.36;99088.13;10415848;28;20131;-59
2024/03/24 10:21:30;;;;;;;4.35;2.13;;;;;;;7.91;76.92;99106.53;10413310;28;20174;-62
2024/03/24 10:26:32;;;;;;;3.42;1.80;;;;;;;7.93;77.59;99109.06;10419706;28;20131;-62
2024/03/24 10:31:37;;;;;;;2.88;1.73;;;;;;;7.69;79.33;99123.47;10418778;28;20124;-60
2024/03/24 10:36:38;;;;;;;2.83;1.58;;;;;;;7.40;81.82;99129.47;10416516;28;20544;-60
2024/03/24 10:41:39;;;;;;;3.67;2.03;;;;;;;7.52;84.50;99126.72;10409381;28;20135;-61
2024/03/24 10:46:40;;;;;;;1.60;0.90;;;;;;;7.88;84.01;99120.06;10404810;28;20524;-60
2024/03/24 10:51:41;;;;;;;2.35;1.00;;;;;;;9.78;81.30;99107.31;10405134;28;20128;-61
2024/03/24 10:56:42;;;;;;;4.10;1.75;;;;;;;11.43;74.36;99091.09;10400054;28;20210;-62
2024/03/24 11:01:44;;;;;;;2.08;1.30;;;;;;;12.27;64.84;99069.97;10409273;28;20052;-61
2024/03/24 11:06:46;;;;;;;1.85;1.17;;;;;;;13.04;64.91;99075.03;10412408;28;20183;-61
2024/03/24 11:11:47;;;;;;;3.08;1.00;;;;;;;13.56;58.67;99049.75;10406568;28;20076;-62
2024/03/24 11:16:47;;;;;;;3.65;1.48;;;;;;;15.16;56.82;99058.13;10410822;28;20087;-61
2024/03/24 11:21:48;;;;;;;2.13;1.33;;;;;;;14.62;53.35;99055.53;10398644;28;20060;-62
2024/03/24 11:26:50;;;;;;;2.33;1.63;;;;;;;13.37;55.34;99051.78;10397556;28;20056;-62
2024/03/24 11:31:51;;;;;;;3.72;1.70;;;;;;;12.34;60.89;99044.28;10394422;28;20542;-61
2024/03/24 11:36:52;;;;;;;3.75;1.52;;;;;;;11.49;61.84;99045.16;10383122;28;20144;-61
2024/03/24 11:42:03;;;;;;;2.13;0.90;;;;;;;10.66;65.06;99069.53;10391801;28;21214;-62
2024/03/24 11:47:05;;;;;;;2.63;0.77;;;;;;;10.13;69.10;99079.97;10412166;28;20625;-63
2024/03/24 11:52:06;;;;;;;2.00;0.60;;;;;;;9.52;75.14;99087.56;10412914;28;20055;-59
2024/03/24 11:57:06;;;;;;;1.67;0.60;;;;;;;9.57;75.79;99080.97;10404940;28;20607;-62
2024/03/24 12:02:07;;;;;;;0.57;0.52;;;;;;;11.02;75.31;99058.84;10414464;28;20048;-60
2024/03/24 12:07:07;;;;;;;2.17;0.73;;;;;;;12.55;67.53;99055.34;10387535;28;20154;-61
2024/03/24 12:12:09;;;;;;;1.90;1.08;;;;;;;13.36;64.06;99058.16;10434053;28;20506;-61
2024/03/24 12:17:09;;;;;;;1.27;0.80;;;;;;;12.69;64.15;99053.84;10404968;28;20060;-61
2024/03/24 12:22:09;;;;;;;1.35;1.02;;;;;;;11.78;64.16;99049.28;10415129;28;20748;-60
2024/03/24 12:27:10;;;;;;;2.65;0.80;;;;;;;13.57;59.75;99046.06;10419349;28;20049;-62
2024/03/24 12:32:12;;;;;;;1.30;0.80;;;;;;;16.01;51.11;99053.31;10402360;28;20055;-61
2024/03/24 12:37:13;;;;;;;1.63;1.08;;;;;;;17.42;48.89;99025.88;10362784;28;20800;-61
2024/03/24 12:42:13;;;;;;;2.58;0.90;;;;;;;19.06;41.80;99021.34;10391176;28;20060;-61
2024/03/24 12:47:17;;;;;;;2.30;1.00;;;;;;;20.30;39.29;99017.88;10376717;28;20160;-60
2024/03/24 12:52:18;;;;;;;2.40;0.75;;;;;;;23.73;32.17;99016.88;10415983;28;20127;-62
2024/03/24 12:57:18;;;;;;;0.75;0.25;;;;;;;21.93;32.77;99012.44;10403928;28;20057;-61
2024/03/24 13:02:20;;;;;;;0.60;0.35;;;;;;;21.65;33.98;99007.59;10414885;28;20072;-63
2024/03/24 13:07:23;;;;;;;1.48;0.50;;;;;;;18.24;38.93;99007.19;10409210;28;20134;-61
2024/03/24 13:12:25;;;;;;;1.45;0.70;;;;;;;19.33;38.18;98994.34;10404187;28;20198;-62
2024/03/24 13:17:29;;;;;;;1.42;0.47;;;;;;;21.13;35.11;99005.19;10415038;28;20469;-61
2024/03/24 13:22:30;;;;;;;1.15;0.52;;;;;;;24.27;29.59;99008.44;10376708;28;20148;-61
2024/03/24 13:27:58;;;;;;;1.13;0.40;;;;;;;22.07;31.03;99002.28;10370746;28;20362;-62
2024/03/24 13:33:00;;;;;;;1.65;0.30;;;;;;;19.69;34.53;99002.97;10427575;28;20136;-62
2024/03/24 13:38:17;;;;;;;2.33;0.47;;;;;;;17.58;38.10;99013.13;10390460;28;20552;-62
2024/03/24 13:43:53;;;;;;;1.33;0.32;;;;;;;16.34;40.96;99001.84;10409497;28;20056;-61
2024/03/24 13:48:59;;;;;;;1.67;0.60;;;;;;;15.52;44.29;98960.00;10397268;28;20107;-61
2024/03/24 13:54:02;;;;;;;1.30;0.57;;;;;;;15.79;44.72;98965.75;10438543;28;20158;-61
2024/03/24 13:59:02;;;;;;;2.17;0.70;;;;;;;15.38;44.08;98964.38;10418250;28;20128;-61
2024/03/24 14:04:02;;;;;;;1.73;0.60;;;;;;;14.26;46.75;98965.09;10418522;28;20037;-60
2024/03/24 14:09:04;;;;;;;1.83;0.70;;;;;;;13.28;50.78;98991.31;10398602;28;20048;-62
2024/03/24 14:14:27;;;;;;;2.13;1.10;;;;;;;11.05;62.12;99031.91;10428098;28;20152;-61
2024/03/24 14:20:07;;;;;;;2.17;0.70;;;;;;;10.94;64.30;99025.88;10396225;28;20143;-61
2024/03/24 14:25:22;;;;;;;1.25;0.50;;;;;;;10.76;66.40;99033.03;10336962;28;20811;-61
2024/03/24 14:30:22;;;;;;;1.30;0.45;;;;;;;10.32;67.62;99036.47;10395651;28;20150;-61
2024/03/24 14:35:32;;;;;;;3.50;1.10;;;;;;;10.44;72.46;99015.81;10411192;28;20075;-61
2024/03/24 14:40:50;;;;;;;3.47;1.10;;;;;;;10.18;70.08;99058.28;10401034;28;20708;-62
2024/03/24 14:46:19;;;;;;;1.60;0.90;;;;;;;9.92;72.78;99024.41;10411461;28;20243;-60
2024/03/24 14:51:20;;;;;;;2.92;1.00;;;;;;;10.60;75.18;99039.91;10408426;28;20207;-60
2024/03/24 14:56:21;;;;;;;3.17;1.00;;;;;;;11.26;74.15;99037.72;10401043;28;20053;-61
2024/03/24 15:01:22;;;;;;;1.35;0.80;;;;;;;10.86;71.89;99063.06;10382096;28;20591;-60
2024/03/24 15:06:22;;;;;;;3.03;1.02;;;;;;;10.71;70.48;99035.34;10385015;28;20053;-61
2024/03/24 15:11:24;;;;;;;1.05;0.60;;;;;;;10.70;71.40;99036.31;10411609;28;20060;-60
2024/03/24 15:16:25;;;;;;;1.40;0.57;;;;;;;10.37;71.64;99033.38;10412663;28;20131;-62
2024/03/24 15:21:26;;;;;;;2.42;1.30;;;;;;;10.54;70.92;99040.53;10405400;28;20128;-63
2024/03/24 15:26:28;;;;;;;2.03;1.15;;;;;;;10.44;66.57;99042.44;10414122;28;20631;-61
2024/03/24 15:31:28;;;;;;;3.42;1.15;;;;;;;10.26;69.09;99045.88;10405376;28;20136;-61
2024/03/24 15:36:29;;;;;;;1.25;0.50;;;;;;;10.04;67.42;99033.00;10404643;28;20604;-61
2024/03/24 15:41:29;;;;;;;0.90;0.43;;;;;;;9.82;68.83;99040.44;10409866;28;20091;-60
2024/03/24 15:46:29;;;;;;;1.40;0.60;;;;;;;9.54;66.12;99034.28;10389216;28;20133;-61
2024/03/24 15:51:30;;;;;;;1.85;0.60;;;;;;;9.59;67.61;99041.81;10375232;28;20052;-60
2024/03/24 15:56:43;;;;;;;2.42;0.77;;;;;;;9.37;67.84;99046.50;10412494;28;20186;-63
2024/03/24 16:02:13;;;;;;;1.25;0.50;;;;;;;9.49;69.49;99045.34;10421938;28;20156;-61
2024/03/24 16:07:23;;;;;;;2.90;1.23;;;;;;;9.35;70.01;99045.81;10405276;28;20132;-61
2024/03/24 16:12:36;;;;;;;4.30;1.80;;;;;;;9.50;70.78;99047.03;10396671;28;20140;-60
2024/03/24 16:17:36;;;;;;;1.30;0.60;;;;;;;9.50;69.85;99051.47;10412467;28;20075;-60
2024/03/24 16:22:42;;;;;;;2.17;0.70;;;;;;;9.42;69.81;99046.91;10402453;28;20557;-61
2024/03/24 16:27:43;;;;;;;3.60;1.48;;;;;;;9.29;68.21;99033.09;10396244;28;20073;-62
2024/03/24 16:32:44;;;;;;;2.55;1.35;;;;;;;9.14;67.54;99036.25;10412606;28;20049;-60
2024/03/24 16:37:44;;;;;;;2.67;1.30;;;;;;;9.22;66.97;99042.63;10402411;28;20051;-61
2024/03/24 16:42:46;;;;;;;3.22;1.55;;;;;;;9.31;67.22;99049.75;10378696;28;20279;-62
2024/03/24 16:47:48;;;;;;;3.80;1.55;;;;;;;9.17;68.80;99046.56;10385996;28;20061;-67
2024/03/24 16:52:49;;;;;;;2.47;1.52;;;;;;;9.33;68.21;99045.94;10375447;28;20135;-62
2024/03/24 16:57:49;;;;;;;2.83;1.30;;;;;;;9.32;69.11;99038.13;10354757;28;20535;-61
2024/03/24 17:02:50;;;;;;;2.30;1.00;;;;;;;9.35;67.38;99044.00;10378044;28;20115;-60
2024/03/24 17:07:50;;;;;;;3.22;1.25;;;;;;;9.35;68.73;99036.03;10409846;28;20271;-61
2024/03/24 17:12:55;;;;;;;2.55;1.77;;;;;;;9.26;67.37;99030.75;10412780;28;20464;-61
2024/03/24 17:17:56;;;;;;;2.92;1.35;;;;;;;9.12;67.44;99032.88;10391542;28;20559;-61
2024/03/24 17:22:57;;;;;;;4.25;1.70;;;;;;;8.96;67.80;99032.63;10413582;28;20139;-61
2024/03/24 17:27:58;;;;;;;3.03;1.77;;;;;;;8.85;68.18;99037.13;10390866;28;20823;-62
2024/03/24 17:33:00;;;;;;;4.15;1.55;;;;;;;8.90;67.34;99054.44;10400670;28;20147;-62
2024/03/24 17:38:01;;;;;;;3.08;1.70;;;;;;;8.96;67.05;99056.53;10399101;28;20284;-61
2024/03/24 17:43:02;;;;;;;1.90;1.50;;;;;;;8.94;67.96;99071.75;10406716;28;20206;-62
2024/03/24 17:48:03;;;;;;;3.78;1.65;;;;;;;9.00;66.80;99082.63;10400005;28;20124;-61
2024/03/24 17:53:04;;;;;;;2.70;1.67;;;;;;;9.02;66.66;99096.63;10409970;28;20460;-63
2024/03/24 17:58:05;;;;;;;3.05;2.10;;;;;;;8.91;67.28;99103.91;10382289;28;20076;-62
2024/03/24 18:03:06;;;;;;;4.65;2.35;;;;;;;9.00;68.83;99103.03;10377990;28;20160;-62
2024/03/24 18:13:26;;;;;;;2.30;1.50;;;;;;;9.02;65.79;99122.31;10363126;28;20144;-62
2024/03/24 18:18:27;;;;;;;3.50;1.92;;;;;;;9.12;65.17;99117.84;10411225;28;20053;-62
2024/03/24 18:23:28;;;;;;;2.60;1.88;;;;;;;9.18;64.44;99127.88;10382822;28;20056;-61
2024/03/24 18:28:28;;;;;;;5.20;1.90;;;;;;;9.22;64.92;99127.59;10406224;28;20219;-61
2024/03/24 18:33:29;;;;;;;3.95;2.00;;;;;;;9.17;64.52;99128.88;10406206;28;20054;-62
2024/03/24 18:38:31;;;;;;;7.15;3.30;;;;;;;8.95;63.42;99118.56;10408047;28;20152;-62
2024/03/24 18:43:32;;;;;;;2.92;1.80;;;;;;;8.77;64.14;99113.97;10407363;28;20049;-61
2024/03/24 18:48:32;;;;;;;6.75;2.33;;;;;;;8.94;63.67;99130.97;10389511;28;20066;-61
2024/03/24 18:53:33;;;;;;;4.65;2.42;;;;;;;8.99;63.89;99138.53;10369155;28;20507;-60
2024/03/24 18:58:33;;;;;;;3.80;2.17;;;;;;;8.85;62.79;99131.81;10353811;28;20047;-60
2024/03/24 19:03:34;;;;;;;2.20;1.60;;;;;;;8.79;63.00;99141.19;10381453;28;20053;-62
2024/03/24 19:08:34;;;;;;;4.28;1.75;;;;;;;8.74;62.94;99135.47;10386181;28;20108;-60
2024/03/24 19:13:37;;;;;;;1.88;1.58;;;;;;;8.71;62.45;99134.88;10377970;28;20068;-61
2024/03/24 19:18:37;;;;;;;3.28;1.60;;;;;;;8.60;63.00;99128.75;10399846;28;20144;-61
2024/03/24 19:23:38;;;;;;;3.60;1.63;;;;;;;8.67;62.46;99139.66;10400259;28;20056;-62
2024/03/24 19:28:38;;;;;;;2.38;1.75;;;;;;;8.64;63.00;99150.53;10377630;28;20052;-62
2024/03/24 19:33:40;;;;;;;3.20;1.80;;;;;;;8.59;64.13;99181.94;10388385;28;20596;-62
2024/03/24 19:38:40;;;;;;;2.53;1.48;;;;;;;8.48;65.14;99193.50;10408967;28;20227;-61
2024/03/24 19:43:42;;;;;;;2.88;1.42;;;;;;;8.46;65.20;99198.09;10405017;28;20545;-62
2024/03/24 19:48:42;;;;;;;8.20;2.30;;;;;;;8.38;64.88;99196.09;10391929;28;20918;-61
2024/03/24 19:53:44;;;;;;;2.50;1.17;;;;;;;8.66;65.61;99191.00;10402445;28;20057;-62
2024/03/24 19:58:44;;;;;;;4.10;1.85;;;;;;;8.83;65.48;99185.03;10352437;28;20925;-64
2024/03/24 20:03:45;;;;;;;1.98;1.55;;;;;;;8.80;63.15;99171.22;10407347;28;20147;-63
2024/03/24 20:08:45;;;;;;;2.53;1.65;;;;;;;8.70;63.22;99173.03;10406380;28;20063;-62
2024/03/24 20:13:47;;;;;;;3.80;1.60;;;;;;;8.75;63.20;99187.56;10398576;28;20152;-61
2024/03/24 20:18:47;;;;;;;2.65;1.35;;;;;;;8.79;62.62;99180.97;10406744;28;20544;-62
2024/03/24 20:23:48;;;;;;;4.93;1.85;;;;;;;8.75;62.97;99169.00;10422412;28;20049;-61
2024/03/24 20:28:48;;;;;;;2.65;1.50;;;;;;;8.69;63.58;99166.84;10402240;28;20132;-62
2024/03/24 20:33:49;;;;;;;3.40;1.67;;;;;;;8.66;62.97;99185.72;10421182;28;20565;-64
2024/03/24 20:38:50;;;;;;;3.70;1.65;;;;;;;8.58;62.98;99193.53;10411184;28;20045;-63
2024/03/24 20:43:50;;;;;;;4.80;1.83;;;;;;;8.65;63.64;99206.09;10417939;28;20132;-64
2024/03/24 20:48:53;;;;;;;6.60;1.90;;;;;;;8.75;62.79;99202.63;10415851;28;20049;-62
2024/03/24 20:53:53;;;;;;;4.00;2.03;;;;;;;8.80;62.90;99201.25;10358838;28;20191;-60
2024/03/24 20:58:54;;;;;;;3.13;1.52;;;;;;;8.74;62.13;99204.44;10391151;28;20058;-62
2024/03/24 21:03:54;;;;;;;2.85;1.88;;;;;;;8.71;62.56;99204.72;10384243;28;20071;-61
2024/03/24 21:08:55;;;;;;;6.72;2.17;;;;;;;8.73;62.73;99213.38;10413240;28;20140;-62
2024/03/24 21:13:56;;;;;;;3.10;1.42;;;;;;;8.81;62.22;99226.81;10392010;28;20055;-61
2024/03/24 21:18:56;;;;;;;3.55;1.67;;;;;;;8.85;63.39;99216.75;10387552;28;20144;-61
2024/03/24 21:23:58;;;;;;;4.60;1.75;;;;;;;8.77;61.55;99208.66;10391289;28;20049;-61
2024/03/24 21:29:00;;;;;;;2.78;1.60;;;;;;;8.73;62.33;99224.00;10428320;28;20227;-64
2024/03/24 21:34:02;;;;;;;2.80;1.60;;;;;;;8.74;63.23;99224.84;10384829;28;20187;-61
2024/03/24 21:44:42;;;;;;;3.33;1.73;;;;;;;8.69;63.02;99221.75;10440588;28;20900;-62
2024/03/24 21:49:42;;;;;;;3.55;1.15;;;;;;;8.74;62.48;99204.44;10398410;28;20056;-61
2024/03/24 21:54:42;;;;;;;4.97;1.05;;;;;;;8.79;63.39;99227.91;10408152;28;20049;-62
2024/03/24 21:59:43;;;;;;;3.55;1.30;;;;;;;8.77;62.12;99241.31;10404121;28;20107;-62
2024/03/24 22:04:43;;;;;;;4.55;1.42;;;;;;;8.83;63.27;99229.31;10359405;28;20140;-61
2024/03/24 22:09:44;;;;;;;3.05;1.35;;;;;;;8.49;62.36;99230.50;10376945;28;20053;-60
2024/03/24 22:14:44;;;;;;;1.95;1.17;;;;;;;8.75;62.15;99243.28;10372753;28;20042;-61
2024/03/24 22:19:45;;;;;;;2.28;0.68;;;;;;;8.66;60.92;99241.41;10375045;28;20632;-61
2024/03/24 22:24:46;;;;;;;4.45;1.20;;;;;;;8.57;61.47;99243.09;10403060;28;20040;-65
2024/03/24 22:29:49;;;;;;;3.88;0.90;;;;;;;8.66;61.90;99249.38;10396293;28;20136;-64
2024/03/24 22:34:50;;;;;;;4.85;1.17;;;;;;;8.62;62.04;99248.00;10409180;28;20155;-65
2024/03/24 22:39:50;;;;;;;3.58;1.25;;;;;;;8.73;60.84;99245.22;10410334;28;20057;-64
2024/03/24 22:44:51;;;;;;;4.05;1.08;;;;;;;8.70;61.60;99249.97;10402510;28;20072;-65
2024/03/24 22:49:51;;;;;;;4.07;1.60;;;;;;;8.53;61.18;99238.19;10418134;28;20059;-64
2024/03/24 22:54:51;;;;;;;3.72;1.20;;;;;;;8.63;61.31;99239.91;10398210;28;20072;-65
2024/03/24 22:59:52;;;;;;;4.95;1.73;;;;;;;8.57;61.38;99237.78;10411305;28;20697;-65
2024/03/24 23:04:53;;;;;;;3.70;1.10;;;;;;;8.69;60.91;99254.41;10396288;28;20048;-64
2024/03/24 23:09:54;;;;;;;2.20;0.93;;;;;;;8.71;60.18;99241.88;10408477;28;20750;-65
2024/03/24 23:14:58;;;;;;;4.22;0.70;;;;;;;8.71;60.44;99248.97;10396946;28;21538;-65
2024/03/24 23:19:59;;;;;;;1.77;0.75;;;;;;;8.68;61.60;99258.06;10377229;28;20314;-65
2024/03/24 23:25:00;;;;;;;4.72;1.38;;;;;;;8.58;60.68;99236.81;10395623;28;20103;-64
2024/03/24 23:30:02;;;;;;;2.30;1.02;;;;;;;8.73;60.73;99250.53;10397060;28;20065;-65
2024/03/24 23:35:03;;;;;;;2.15;0.75;;;;;;;8.65;60.71;99253.84;10409177;28;20592;-65
2024/03/24 23:40:05;;;;;;;2.65;1.30;;;;;;;8.80;60.96;99267.59;10410610;28;20055;-65
2024/03/24 23:45:06;;;;;;;3.78;1.40;;;;;;;8.70;60.30;99269.38;10415327;28;20087;-65
2024/03/24 23:50:08;;;;;;;3.55;1.13;;;;;;;8.78;59.53;99279.28;10408488;28;20052;-64